Time;durP1;ratioP1;P1;durP2;ratioP2;P2;SDS_P1;SDS_P2;PMS_P1;PMS_P2;Temp;Humidity;BMP_temperature;BMP_pressure;BME280_temperature;BME280_humidity;BME280_pressure;Samples;Min_cycle;Max_cycle;Signal;HPM_P1;HPM_P2
2021/05/15 05:14:43;;;;;;;9.60;2.67;;;;;;;;;;5167259;27;883483;-72
2021/05/15 05:17:09;;;;;;;10.95;3.05;;;;;;;;;;5230690;27;20081;-72
2021/05/15 05:19:35;;;;;;;6.45;2.28;;;;;;;;;;5248312;27;20469;-73
2021/05/15 05:22:03;;;;;;;14.40;3.28;;;;;;;;;;5230699;27;20092;-72
2021/05/15 05:24:33;;;;;;;4.62;1.95;;;;;;;;;;5230577;27;20092;-72
2021/05/15 05:27:01;;;;;;;6.85;2.55;;;;;;;;;;5249910;27;20089;-72
2021/05/15 05:29:28;;;;;;;10.18;2.97;;;;;;;;;;5212333;27;20171;-72
2021/05/15 05:31:54;;;;;;;7.43;2.83;;;;;;;;;;5230341;27;20141;-67
2021/05/15 05:34:20;;;;;;;9.85;2.97;;;;;;;;;;5225079;27;20424;-67
2021/05/15 05:36:47;;;;;;;12.13;2.90;;;;;;;;;;5244545;27;20104;-71
2021/05/15 05:39:17;;;;;;;9.70;3.05;;;;;;;;;;5244297;27;20100;-70
2021/05/15 05:41:44;;;;;;;12.57;2.60;;;;;;;;;;5242173;27;20093;-71
2021/05/15 05:44:10;;;;;;;10.15;2.72;;;;;;;;;;5243355;27;20089;-71
2021/05/15 05:46:36;;;;;;;4.60;2.00;;;;;;;;;;5243212;27;20099;-70
2021/05/15 05:49:02;;;;;;;5.87;2.22;;;;;;;;;;5206098;27;20558;-71
2021/05/15 05:51:28;;;;;;;11.38;2.25;;;;;;;;;;5243191;27;20179;-71
2021/05/15 05:53:54;;;;;;;6.10;2.15;;;;;;;;;;5243499;27;20107;-72
2021/05/15 05:56:20;;;;;;;4.37;2.22;;;;;;;;;;5244252;27;20573;-71
2021/05/15 05:58:46;;;;;;;9.65;2.50;;;;;;;;;;5224103;27;20184;-70
2021/05/15 06:01:13;;;;;;;10.50;2.78;;;;;;;;;;5225104;27;20096;-70
2021/05/15 06:03:39;;;;;;;10.63;2.22;;;;;;;;;;5225277;27;20082;-71
2021/05/15 06:06:05;;;;;;;13.30;2.70;;;;;;;;;;5224893;27;20502;-71
2021/05/15 06:08:31;;;;;;;7.85;2.72;;;;;;;;;;5244472;27;20081;-71
2021/05/15 06:10:57;;;;;;;8.45;2.47;;;;;;;;;;5244347;27;20089;-71
2021/05/15 06:13:23;;;;;;;7.40;2.40;;;;;;;;;;5244684;27;20487;-71
2021/05/15 06:15:49;;;;;;;2.55;2.33;;;;;;;;;;5242637;27;20178;-71
2021/05/15 06:18:15;;;;;;;8.60;2.33;;;;;;;;;;5244451;27;20161;-71
2021/05/15 06:20:42;;;;;;;3.17;1.83;;;;;;;;;;5244154;27;20559;-71
2021/05/15 06:23:08;;;;;;;14.15;3.08;;;;;;;;;;5244292;27;20173;-71
2021/05/15 06:25:34;;;;;;;5.40;2.37;;;;;;;;;;5244635;27;20088;-71
2021/05/15 06:28:00;;;;;;;11.32;2.30;;;;;;;;;;5244400;27;20470;-71
2021/05/15 06:30:26;;;;;;;7.20;3.45;;;;;;;;;;5225025;27;20061;-71
2021/05/15 06:32:52;;;;;;;8.80;2.70;;;;;;;;;;5244612;27;20084;-71
2021/05/15 06:35:18;;;;;;;11.35;3.30;;;;;;;;;;5244351;27;20060;-71
2021/05/15 06:37:44;;;;;;;10.20;2.87;;;;;;;;;;5224740;27;20092;-71
2021/05/15 06:40:10;;;;;;;8.65;3.10;;;;;;;;;;5244229;27;20073;-71
2021/05/15 06:42:36;;;;;;;6.40;3.12;;;;;;;;;;5244125;27;20088;-71
2021/05/15 06:45:04;;;;;;;9.38;3.50;;;;;;;;;;5224950;27;20086;-72
2021/05/15 06:47:30;;;;;;;12.63;2.78;;;;;;;;;;5244206;27;20096;-71
2021/05/15 06:49:56;;;;;;;9.38;1.83;;;;;;;;;;5224961;27;20191;-71
2021/05/15 06:52:22;;;;;;;10.68;3.15;;;;;;;;;;5244325;27;20728;-72
2021/05/15 06:54:48;;;;;;;9.45;2.70;;;;;;;;;;5244231;27;20495;-72
2021/05/15 06:57:14;;;;;;;4.53;2.05;;;;;;;;;;5244229;27;20081;-71
2021/05/15 06:59:40;;;;;;;13.93;3.42;;;;;;;;;;5244084;27;20116;-72
2021/05/15 07:02:06;;;;;;;8.70;2.35;;;;;;;;;;5244470;27;20076;-72
2021/05/15 07:04:32;;;;;;;15.38;2.75;;;;;;;;;;5244135;27;20104;-72
2021/05/15 07:06:58;;;;;;;10.60;3.10;;;;;;;;;;5224967;27;20088;-71
2021/05/15 07:09:24;;;;;;;9.35;2.60;;;;;;;;;;5224525;27;20088;-71
2021/05/15 07:11:50;;;;;;;5.75;2.55;;;;;;;;;;5244018;27;20111;-71
2021/05/15 07:14:16;;;;;;;14.32;2.83;;;;;;;;;;5244082;27;20124;-72
2021/05/15 07:16:42;;;;;;;11.00;2.87;;;;;;;;;;5243824;27;20074;-72
2021/05/15 07:19:08;;;;;;;6.40;2.35;;;;;;;;;;5244050;27;20167;-72
2021/05/15 07:21:34;;;;;;;3.15;1.33;;;;;;;;;;5244077;27;20069;-72
2021/05/15 07:24:00;;;;;;;1.90;1.40;;;;;;;;;;5244088;27;20092;-71
2021/05/15 07:26:27;;;;;;;11.45;2.33;;;;;;;;;;5243641;27;20108;-72
2021/05/15 07:28:53;;;;;;;8.88;2.22;;;;;;;;;;5244125;27;20085;-72
2021/05/15 07:31:19;;;;;;;9.55;2.78;;;;;;;;;;5243818;27;20084;-72
2021/05/15 07:33:45;;;;;;;2.53;1.73;;;;;;;;;;5224590;27;20190;-71
2021/05/15 07:36:11;;;;;;;17.60;2.78;;;;;;;;;;5243798;27;20591;-71
2021/05/15 07:38:37;;;;;;;6.00;2.10;;;;;;;;;;5224714;27;20147;-71
2021/05/15 07:41:04;;;;;;;17.08;3.55;;;;;;;;;;5243697;27;20080;-72
2021/05/15 07:43:30;;;;;;;8.80;2.42;;;;;;;;;;5224643;27;20061;-72
2021/05/15 07:45:56;;;;;;;14.02;3.67;;;;;;;;;;5243889;27;20428;-72
2021/05/15 07:48:29;;;;;;;8.65;3.50;;;;;;;;;;5244077;27;20472;-72
2021/05/15 07:50:59;;;;;;;4.87;2.45;;;;;;;;;;5243621;27;20068;-72
2021/05/15 07:53:25;;;;;;;3.72;2.25;;;;;;;;;;5224281;27;20073;-72
2021/05/15 07:55:52;;;;;;;11.32;2.83;;;;;;;;;;5243652;27;20099;-72
2021/05/15 07:58:18;;;;;;;13.23;2.75;;;;;;;;;;5244183;27;20069;-72
2021/05/15 08:00:43;;;;;;;2.58;2.17;;;;;;;;;;5224133;27;20185;-72
2021/05/15 08:03:09;;;;;;;10.30;2.60;;;;;;;;;;5243712;27;20083;-72
2021/05/15 08:05:35;;;;;;;3.90;1.80;;;;;;;;;;5224238;27;20066;-72
2021/05/15 08:08:02;;;;;;;9.90;2.50;;;;;;;;;;5243593;27;20085;-72
2021/05/15 08:10:29;;;;;;;7.45;2.95;;;;;;;;;;5224295;27;20075;-72
2021/05/15 08:12:56;;;;;;;17.45;2.65;;;;;;;;;;5243597;27;20531;-72
2021/05/15 08:15:22;;;;;;;3.22;2.30;;;;;;;;;;5243769;27;20089;-72
2021/05/15 08:17:48;;;;;;;16.83;3.37;;;;;;;;;;5243805;27;20085;-72
2021/05/15 08:20:14;;;;;;;5.43;2.40;;;;;;;;;;5243859;27;20101;-72
2021/05/15 08:22:40;;;;;;;7.53;2.60;;;;;;;;;;5243946;27;20088;-72
2021/05/15 08:25:07;;;;;;;6.35;2.22;;;;;;;;;;5224018;27;20162;-72
2021/05/15 08:27:34;;;;;;;15.27;4.20;;;;;;;;;;5243688;27;20480;-72
2021/05/15 08:30:01;;;;;;;8.40;3.60;;;;;;;;;;5206982;27;20163;-72
2021/05/15 08:32:27;;;;;;;3.08;1.87;;;;;;;;;;5243600;27;20492;-72
2021/05/15 08:34:52;;;;;;;4.93;2.58;;;;;;;;;;5224068;27;20097;-72
2021/05/15 08:37:18;;;;;;;2.30;1.80;;;;;;;;;;5243782;27;20189;-72
2021/05/15 08:39:44;;;;;;;13.40;2.28;;;;;;;;;;5243489;27;20448;-72
2021/05/15 08:42:11;;;;;;;3.30;1.73;;;;;;;;;;5243494;27;20100;-72
2021/05/15 08:44:37;;;;;;;8.00;2.75;;;;;;;;;;5224137;27;20168;-72
2021/05/15 08:47:03;;;;;;;15.73;4.00;;;;;;;;;;5243576;27;20397;-72
2021/05/15 08:49:29;;;;;;;6.05;1.92;;;;;;;;;;5188949;27;20159;-72
2021/05/15 08:51:55;;;;;;;1.80;1.62;;;;;;;;;;5206381;27;20507;-72
2021/05/15 08:54:21;;;;;;;4.37;2.17;;;;;;;;;;5206384;27;20112;-72
2021/05/15 08:56:48;;;;;;;14.82;2.60;;;;;;;;;;5224164;27;20570;-72
2021/05/15 08:59:14;;;;;;;10.48;2.70;;;;;;;;;;5243523;27;20054;-72
2021/05/15 09:01:44;;;;;;;3.90;2.42;;;;;;;;;;5243296;27;20105;-71
2021/05/15 09:04:10;;;;;;;3.00;2.05;;;;;;;;;;5243494;27;20080;-71
2021/05/15 09:06:40;;;;;;;5.87;2.20;;;;;;;;;;5224100;27;20097;-71
2021/05/15 09:09:06;;;;;;;4.22;2.10;;;;;;;;;;5244485;27;20088;-71
2021/05/15 09:11:32;;;;;;;3.40;1.85;;;;;;;;;;5244734;27;20163;-71
2021/05/15 09:13:58;;;;;;;9.95;2.33;;;;;;;;;;5207706;27;20084;-71
2021/05/15 09:16:24;;;;;;;15.95;2.62;;;;;;;;;;5244453;27;20097;-71
2021/05/15 09:18:50;;;;;;;5.25;2.03;;;;;;;;;;5244842;27;20432;-71
2021/05/15 09:21:18;;;;;;;6.55;3.10;;;;;;;;;;5225338;27;20089;-71
2021/05/15 09:23:46;;;;;;;8.20;2.58;;;;;;;;;;5225810;27;20081;-71
2021/05/15 09:26:13;;;;;;;2.58;1.77;;;;;;;;;;5225516;27;20604;-71
2021/05/15 09:28:50;;;;;;;8.15;1.98;;;;;;;;;;5225663;27;20097;-71
2021/05/15 09:31:26;;;;;;;5.78;2.60;;;;;;;;;;5225396;27;20505;-71
2021/05/15 09:33:59;;;;;;;6.12;2.22;;;;;;;;;;5225611;27;20091;-71
2021/05/15 09:36:27;;;;;;;5.72;2.45;;;;;;;;;;5208402;27;20128;-71
2021/05/15 09:39:16;;;;;;;4.35;1.83;;;;;;;;;;5225298;27;20073;-71
2021/05/15 09:41:45;;;;;;;4.90;2.60;;;;;;;;;;5224959;27;20416;-71
2021/05/15 09:44:14;;;;;;;5.50;1.85;;;;;;;;;;5244726;27;20077;-71
2021/05/15 09:46:43;;;;;;;6.43;2.78;;;;;;;;;;5225047;27;20170;-71
2021/05/15 09:49:09;;;;;;;2.10;1.77;;;;;;;;;;5225069;27;20503;-71
2021/05/15 09:51:35;;;;;;;6.57;2.47;;;;;;;;;;5225042;27;20085;-71
2021/05/15 09:54:14;;;;;;;6.40;2.30;;;;;;;;;;5245039;27;20186;-71
2021/05/15 09:56:40;;;;;;;5.20;2.17;;;;;;;;;;5244366;27;20523;-72
2021/05/15 09:59:06;;;;;;;5.07;2.37;;;;;;;;;;5244636;27;20112;-71
2021/05/15 10:01:45;;;;;;;10.77;2.75;;;;;;;;;;5207244;27;20161;-71
2021/05/15 10:04:10;;;;;;;11.70;3.22;;;;;;;;;;5244673;27;20081;-71
2021/05/15 10:06:37;;;;;;;10.38;2.60;;;;;;;;;;5244388;27;20093;-72
2021/05/15 10:09:03;;;;;;;5.25;2.53;;;;;;;;;;5224991;27;20092;-71
2021/05/15 10:11:29;;;;;;;6.37;2.75;;;;;;;;;;5244400;27;20073;-72
2021/05/15 10:13:55;;;;;;;7.37;2.35;;;;;;;;;;5224878;27;20104;-72
2021/05/15 10:16:21;;;;;;;7.45;1.92;;;;;;;;;;5244466;27;20113;-72
2021/05/15 10:18:48;;;;;;;4.55;2.70;;;;;;;;;;5244372;27;20108;-72
2021/05/15 10:21:14;;;;;;;2.53;2.25;;;;;;;;;;5224665;27;20149;-72
2021/05/15 10:23:44;;;;;;;9.43;3.08;;;;;;;;;;5244695;27;20140;-71
2021/05/15 10:26:20;;;;;;;5.18;2.47;;;;;;;;;;5207270;27;20488;-72
2021/05/15 10:29:03;;;;;;;5.82;1.90;;;;;;;;;;5224960;27;20139;-72
2021/05/15 10:31:37;;;;;;;3.42;2.28;;;;;;;;;;5225834;27;20209;-72
2021/05/15 10:34:03;;;;;;;1.65;1.55;;;;;;;;;;5244433;27;20084;-72
2021/05/15 10:36:29;;;;;;;12.90;2.33;;;;;;;;;;5244471;27;20065;-72
2021/05/15 10:38:55;;;;;;;1.67;1.27;;;;;;;;;;5224742;27;20111;-72
2021/05/15 10:41:25;;;;;;;2.62;1.98;;;;;;;;;;5243966;27;20230;-72
2021/05/15 10:43:52;;;;;;;2.08;1.75;;;;;;;;;;5225200;27;20392;-72
2021/05/15 10:46:18;;;;;;;1.42;1.35;;;;;;;;;;5224930;27;20512;-72
2021/05/15 10:49:08;;;;;;;6.12;1.92;;;;;;;;;;5244486;27;20188;-72
2021/05/15 10:51:41;;;;;;;9.63;3.25;;;;;;;;;;5244429;27;20099;-72
2021/05/15 10:54:08;;;;;;;11.48;2.60;;;;;;;;;;5244565;27;20556;-72
2021/05/15 10:56:34;;;;;;;0.93;0.93;;;;;;;;;;5243997;27;20073;-72
2021/05/15 10:59:05;;;;;;;4.62;2.25;;;;;;;;;;5244393;27;20098;-72
2021/05/15 11:02:02;;;;;;;11.93;2.78;;;;;;;;;;5243962;27;20111;-72
2021/05/15 11:04:32;;;;;;;3.12;2.45;;;;;;;;;;5243711;27;20115;-72
2021/05/15 11:07:05;;;;;;;4.57;2.45;;;;;;;;;;5224687;27;20258;-72
2021/05/15 11:09:32;;;;;;;1.50;1.40;;;;;;;;;;5244056;27;20450;-72
2021/05/15 11:12:05;;;;;;;2.35;1.90;;;;;;;;;;5224360;27;20096;-72
2021/05/15 11:14:32;;;;;;;8.30;2.70;;;;;;;;;;5244247;27;20500;-71
2021/05/15 11:17:20;;;;;;;6.43;2.50;;;;;;;;;;5244181;27;20100;-72
2021/05/15 11:19:49;;;;;;;1.30;1.20;;;;;;;;;;5243995;27;20084;-71
2021/05/15 11:22:15;;;;;;;2.80;1.33;;;;;;;;;;5244227;27;20072;-72
2021/05/15 11:24:50;;;;;;;8.30;2.70;;;;;;;;;;5224496;27;20108;-72
2021/05/15 11:27:17;;;;;;;7.43;1.85;;;;;;;;;;5244060;27;20091;-72
2021/05/15 11:29:43;;;;;;;5.40;2.08;;;;;;;;;;5224732;27;20176;-72
2021/05/15 11:32:13;;;;;;;14.38;1.95;;;;;;;;;;5243805;27;20084;-72
2021/05/15 11:34:40;;;;;;;4.40;2.20;;;;;;;;;;5243977;27;20085;-72
2021/05/15 11:37:06;;;;;;;9.73;3.20;;;;;;;;;;5224328;27;20075;-72
2021/05/15 11:39:32;;;;;;;11.40;2.72;;;;;;;;;;5224124;27;20170;-72
2021/05/15 11:42:06;;;;;;;3.45;1.83;;;;;;;;;;5243680;27;20091;-72
2021/05/15 11:44:32;;;;;;;6.20;2.42;;;;;;;;;;5224740;27;20092;-72
2021/05/15 11:46:58;;;;;;;8.95;2.78;;;;;;;;;;5244139;27;20666;-72
2021/05/15 11:49:24;;;;;;;1.50;1.40;;;;;;;;;;5224207;27;20182;-71
2021/05/15 11:52:16;;;;;;;6.25;2.45;;;;;;;;;;5224213;27;20566;-72
2021/05/15 11:54:47;;;;;;;1.60;1.50;;;;;;;;;;5238695;27;20086;-72
2021/05/15 11:57:13;;;;;;;2.58;2.20;;;;;;;;;;5225354;27;20173;-71
2021/05/15 11:59:38;;;;;;;6.57;3.60;;;;;;;;;;5243726;27;20112;-71
2021/05/15 12:02:04;;;;;;;8.77;3.50;;;;;;;;;;5243597;27;20101;-71
2021/05/15 12:04:30;;;;;;;9.55;2.47;;;;;;;;;;5206467;27;20504;-71
2021/05/15 12:07:07;;;;;;;14.20;3.42;;;;;;;;;;5244188;27;20166;-71
2021/05/15 12:09:33;;;;;;;2.75;2.15;;;;;;;;;;5243889;27;20091;-71
2021/05/15 12:12:06;;;;;;;8.25;3.10;;;;;;;;;;5224042;27;20126;-71
2021/05/15 12:14:32;;;;;;;2.08;1.87;;;;;;;;;;5243985;27;20089;-71
2021/05/15 12:17:08;;;;;;;10.32;3.17;;;;;;;;;;5224437;27;20093;-71
2021/05/15 12:19:34;;;;;;;8.48;2.95;;;;;;;;;;5224263;27;20158;-71
2021/05/15 12:22:04;;;;;;;12.73;3.50;;;;;;;;;;5243706;27;20088;-71
2021/05/15 12:24:35;;;;;;;3.67;2.53;;;;;;;;;;5243755;27;20081;-71
2021/05/15 12:27:14;;;;;;;16.30;3.45;;;;;;;;;;5224748;27;20089;-71
2021/05/15 12:29:41;;;;;;;8.38;3.03;;;;;;;;;;5243920;27;20081;-71
2021/05/15 12:32:08;;;;;;;7.03;2.10;;;;;;;;;;5243478;27;20173;-71
2021/05/15 12:34:34;;;;;;;10.80;2.55;;;;;;;;;;5243652;27;20500;-71
2021/05/15 12:37:00;;;;;;;10.23;2.75;;;;;;;;;;5243619;27;20073;-71
2021/05/15 12:39:34;;;;;;;5.90;2.03;;;;;;;;;;5224267;27;20173;-71
2021/05/15 12:42:00;;;;;;;9.80;3.45;;;;;;;;;;5243559;27;20065;-71
2021/05/15 12:44:38;;;;;;;12.30;3.78;;;;;;;;;;5225717;27;20085;-71
2021/05/15 12:47:04;;;;;;;16.80;3.72;;;;;;;;;;5225706;27;20084;-72
2021/05/15 12:49:34;;;;;;;6.97;3.08;;;;;;;;;;5245004;27;20107;-72
2021/05/15 12:52:00;;;;;;;8.88;3.78;;;;;;;;;;5245046;27;20564;-71
2021/05/15 12:54:29;;;;;;;2.92;1.35;;;;;;;;;;5238744;27;20109;-71
2021/05/15 12:57:00;;;;;;;7.97;2.65;;;;;;;;;;5245211;27;20393;-71
2021/05/15 12:59:31;;;;;;;2.42;2.17;;;;;;;;;;5245177;27;20174;-72
2021/05/15 13:02:13;;;;;;;5.97;2.53;;;;;;;;;;5207798;27;20553;-72
2021/05/15 13:04:40;;;;;;;4.90;2.87;;;;;;;;;;5245268;27;20073;-72
2021/05/15 13:07:06;;;;;;;11.73;3.15;;;;;;;;;;5244947;27;20163;-72
2021/05/15 13:09:32;;;;;;;13.18;3.10;;;;;;;;;;5244911;27;20163;-72
2021/05/15 13:11:58;;;;;;;9.57;3.10;;;;;;;;;;5244843;27;20069;-72
2021/05/15 13:14:24;;;;;;;9.80;2.95;;;;;;;;;;5245145;27;20435;-71
2021/05/15 13:16:53;;;;;;;5.25;2.85;;;;;;;;;;5244738;27;20092;-72
2021/05/15 13:19:22;;;;;;;11.50;3.10;;;;;;;;;;5245154;27;20073;-72
2021/05/15 13:21:48;;;;;;;6.55;2.28;;;;;;;;;;5244640;27;20084;-72
2021/05/15 13:24:14;;;;;;;7.12;1.85;;;;;;;;;;5245140;27;20112;-72
2021/05/15 13:26:41;;;;;;;10.07;2.72;;;;;;;;;;5225109;27;20696;-72
2021/05/15 13:29:07;;;;;;;3.72;2.12;;;;;;;;;;5245090;27;20072;-71
2021/05/15 13:31:33;;;;;;;7.28;2.72;;;;;;;;;;5225377;27;20468;-72
2021/05/15 13:33:59;;;;;;;6.68;2.65;;;;;;;;;;5225356;27;20093;-72
2021/05/15 13:36:25;;;;;;;6.28;2.62;;;;;;;;;;5244685;27;20174;-71
2021/05/15 13:38:51;;;;;;;7.70;2.97;;;;;;;;;;5225252;27;20108;-72
2021/05/15 13:41:17;;;;;;;5.95;2.42;;;;;;;;;;5244553;27;20092;-71
2021/05/15 13:43:43;;;;;;;8.27;2.58;;;;;;;;;;5225479;27;20710;-72
2021/05/15 13:46:09;;;;;;;4.72;2.10;;;;;;;;;;5244760;27;20499;-71
2021/05/15 13:48:35;;;;;;;4.75;2.60;;;;;;;;;;5244659;27;20081;-71
2021/05/15 13:51:05;;;;;;;2.78;2.10;;;;;;;;;;5244625;27;20185;-71
2021/05/15 13:53:35;;;;;;;8.25;4.75;;;;;;;;;;5207728;27;20513;-72
2021/05/15 13:56:02;;;;;;;9.85;2.92;;;;;;;;;;5244890;27;20085;-72
2021/05/15 13:58:29;;;;;;;4.72;3.12;;;;;;;;;;5225067;27;20482;-71
2021/05/15 14:00:55;;;;;;;11.77;3.65;;;;;;;;;;5244468;27;20056;-72
2021/05/15 14:03:21;;;;;;;7.55;3.20;;;;;;;;;;5225350;27;20080;-71
2021/05/15 14:05:47;;;;;;;5.53;3.25;;;;;;;;;;5244508;27;20076;-72
2021/05/15 14:08:13;;;;;;;3.80;2.33;;;;;;;;;;5244512;27;20080;-72
2021/05/15 14:10:39;;;;;;;9.82;3.30;;;;;;;;;;5244300;27;20435;-72
2021/05/15 14:13:04;;;;;;;7.07;3.33;;;;;;;;;;5225014;27;20107;-71
2021/05/15 14:15:31;;;;;;;3.72;2.62;;;;;;;;;;5244405;27;20091;-72
2021/05/15 14:17:57;;;;;;;6.68;3.20;;;;;;;;;;5244602;27;20575;-71
2021/05/15 14:20:23;;;;;;;6.32;2.95;;;;;;;;;;5244533;27;20193;-71
2021/05/15 14:22:48;;;;;;;7.53;3.30;;;;;;;;;;5244744;27;20528;-71
2021/05/15 14:25:14;;;;;;;6.87;3.50;;;;;;;;;;5244338;27;20174;-71
2021/05/15 14:27:40;;;;;;;9.32;5.15;;;;;;;;;;5244470;27;20136;-71
2021/05/15 14:30:08;;;;;;;10.30;4.97;;;;;;;;;;5244612;27;20076;-71
2021/05/15 14:32:34;;;;;;;7.03;4.30;;;;;;;;;;5244229;27;20173;-71
2021/05/15 14:35:00;;;;;;;13.43;5.55;;;;;;;;;;5244152;27;20166;-71
2021/05/15 14:37:26;;;;;;;10.18;4.43;;;;;;;;;;5224839;27;20081;-72
2021/05/15 14:39:52;;;;;;;12.00;5.45;;;;;;;;;;5225105;27;20088;-71
2021/05/15 14:42:19;;;;;;;14.07;4.62;;;;;;;;;;5244601;27;20065;-71
2021/05/15 14:44:45;;;;;;;11.60;3.92;;;;;;;;;;5244157;27;20476;-72
2021/05/15 14:47:11;;;;;;;15.90;4.95;;;;;;;;;;5244189;27;20494;-71
2021/05/15 14:49:46;;;;;;;12.45;5.22;;;;;;;;;;5244181;27;20096;-72
2021/05/15 14:52:12;;;;;;;18.48;5.60;;;;;;;;;;5244320;27;20077;-71
2021/05/15 14:54:39;;;;;;;8.65;4.37;;;;;;;;;;5224843;27;20081;-71
2021/05/15 14:57:06;;;;;;;5.25;4.07;;;;;;;;;;5244165;27;20177;-71
2021/05/15 14:59:32;;;;;;;9.23;4.15;;;;;;;;;;5244227;27;20163;-71
2021/05/15 15:01:58;;;;;;;12.57;5.50;;;;;;;;;;5244044;27;20193;-71
2021/05/15 15:04:24;;;;;;;14.48;6.22;;;;;;;;;;5244042;27;20182;-71
2021/05/15 15:06:50;;;;;;;11.18;6.43;;;;;;;;;;5224150;27;20101;-71
2021/05/15 15:09:17;;;;;;;16.23;5.62;;;;;;;;;;5224477;27;20196;-71
2021/05/15 15:11:44;;;;;;;11.00;5.12;;;;;;;;;;5224360;27;20060;-71
2021/05/15 15:14:10;;;;;;;10.95;4.57;;;;;;;;;;5243843;27;20168;-71
2021/05/15 15:16:37;;;;;;;17.95;7.65;;;;;;;;;;5206894;27;20123;-70
2021/05/15 15:19:03;;;;;;;19.60;8.73;;;;;;;;;;5224521;27;20087;-71
2021/05/15 15:21:31;;;;;;;12.48;6.97;;;;;;;;;;5243934;27;20073;-72
2021/05/15 15:24:04;;;;;;;17.15;7.65;;;;;;;;;;5244166;27;20065;-71
2021/05/15 15:26:30;;;;;;;21.02;7.05;;;;;;;;;;5206748;27;20064;-71
2021/05/15 15:28:56;;;;;;;21.98;9.18;;;;;;;;;;5243963;27;20080;-71
2021/05/15 15:31:22;;;;;;;18.87;7.32;;;;;;;;;;5243687;27;20060;-71
2021/05/15 15:33:48;;;;;;;18.20;6.22;;;;;;;;;;5243732;27;20089;-71
2021/05/15 15:36:13;;;;;;;13.57;7.70;;;;;;;;;;5243677;27;20081;-71
2021/05/15 15:38:39;;;;;;;23.05;7.78;;;;;;;;;;5243752;27;20503;-71
2021/05/15 15:41:05;;;;;;;18.83;7.45;;;;;;;;;;5243679;27;20097;-71
2021/05/15 15:43:31;;;;;;;14.40;7.87;;;;;;;;;;5224545;27;20467;-71
2021/05/15 15:45:57;;;;;;;17.62;7.75;;;;;;;;;;5244080;27;20080;-71
2021/05/15 15:48:24;;;;;;;16.55;7.37;;;;;;;;;;5243717;27;20156;-71
2021/05/15 15:50:56;;;;;;;26.02;8.38;;;;;;;;;;5243813;27;20092;-71
2021/05/15 15:53:22;;;;;;;14.15;6.35;;;;;;;;;;5243907;27;20185;-71
2021/05/15 15:55:50;;;;;;;11.45;5.55;;;;;;;;;;5224152;27;20085;-72
2021/05/15 15:58:19;;;;;;;11.45;6.28;;;;;;;;;;5224542;27;20593;-71
2021/05/15 16:00:50;;;;;;;14.93;7.25;;;;;;;;;;5224701;27;20503;-71
2021/05/15 16:03:16;;;;;;;15.75;7.60;;;;;;;;;;5244248;27;20475;-71
2021/05/15 16:05:42;;;;;;;23.55;11.05;;;;;;;;;;5243978;27;20161;-71
2021/05/15 16:08:08;;;;;;;16.77;9.30;;;;;;;;;;5222673;27;20484;-70
2021/05/15 16:10:35;;;;;;;14.90;8.48;;;;;;;;;;5202731;27;20066;-70
2021/05/15 16:13:05;;;;;;;18.02;9.25;;;;;;;;;;5222430;27;20077;-70
2021/05/15 16:15:32;;;;;;;13.80;8.25;;;;;;;;;;5222008;27;20094;-70
2021/05/15 16:17:58;;;;;;;16.77;7.55;;;;;;;;;;5222009;27;20089;-70
2021/05/15 16:20:24;;;;;;;23.73;7.03;;;;;;;;;;5222146;27;20429;-70
2021/05/15 16:22:50;;;;;;;16.35;6.95;;;;;;;;;;5202953;27;20093;-70
2021/05/15 16:25:16;;;;;;;11.55;6.60;;;;;;;;;;5222160;27;20086;-71
2021/05/15 16:27:42;;;;;;;13.40;5.72;;;;;;;;;;5222257;27;20094;-71
2021/05/15 16:30:09;;;;;;;14.38;6.22;;;;;;;;;;5222470;27;20109;-71
2021/05/15 16:32:35;;;;;;;23.08;7.47;;;;;;;;;;5203254;27;20085;-71
2021/05/15 16:35:02;;;;;;;11.93;6.65;;;;;;;;;;5220837;27;20065;-71
2021/05/15 16:37:29;;;;;;;14.90;6.85;;;;;;;;;;5222096;27;20070;-71
2021/05/15 16:39:55;;;;;;;13.52;7.37;;;;;;;;;;5203478;27;20421;-71
2021/05/15 16:42:21;;;;;;;24.67;9.05;;;;;;;;;;5222071;27;20065;-71
2021/05/15 16:44:47;;;;;;;19.02;10.13;;;;;;;;;;5202827;27;20070;-71
2021/05/15 16:47:13;;;;;;;21.10;10.30;;;;;;;;;;5221997;27;20073;-71
2021/05/15 16:49:38;;;;;;;22.10;10.82;;;;;;;;;;5202730;27;20178;-71
2021/05/15 16:52:04;;;;;;;16.35;9.48;;;;;;;;;;5221999;27;20077;-71
2021/05/15 16:54:31;;;;;;;24.08;9.70;;;;;;;;;;5222487;27;20101;-71
2021/05/15 16:56:59;;;;;;;20.88;9.93;;;;;;;;;;5202780;27;20150;-72
2021/05/15 16:59:25;;;;;;;14.80;8.60;;;;;;;;;;5202759;27;20069;-71
2021/05/15 17:01:51;;;;;;;16.00;8.95;;;;;;;;;;5222046;27;20070;-71
2021/05/15 17:04:17;;;;;;;16.73;8.07;;;;;;;;;;5202986;27;20175;-71
2021/05/15 17:06:43;;;;;;;13.25;7.68;;;;;;;;;;5222009;27;20085;-71
2021/05/15 17:09:09;;;;;;;15.48;8.52;;;;;;;;;;5222144;27;20096;-71
2021/05/15 17:11:35;;;;;;;17.48;6.97;;;;;;;;;;5222021;27;20424;-71
2021/05/15 17:14:01;;;;;;;15.70;6.68;;;;;;;;;;5202913;27;20089;-71
2021/05/15 17:16:27;;;;;;;16.35;6.30;;;;;;;;;;5221898;27;20096;-70
2021/05/15 17:18:54;;;;;;;17.48;8.05;;;;;;;;;;5203013;27;20101;-70
2021/05/15 17:21:22;;;;;;;20.05;6.28;;;;;;;;;;5221920;27;20178;-70
2021/05/15 17:23:48;;;;;;;13.05;6.28;;;;;;;;;;5222429;27;20189;-70
2021/05/15 17:26:14;;;;;;;20.27;7.65;;;;;;;;;;5203018;27;20484;-71
2021/05/15 17:28:46;;;;;;;9.30;5.47;;;;;;;;;;5222233;27;20088;-71
2021/05/15 17:31:13;;;;;;;8.98;6.57;;;;;;;;;;5223345;27;20090;-71
2021/05/15 17:33:40;;;;;;;13.98;7.28;;;;;;;;;;5203949;27;20085;-71
2021/05/15 17:36:07;;;;;;;16.00;8.00;;;;;;;;;;5204147;27;20073;-71
2021/05/15 17:38:37;;;;;;;12.48;8.02;;;;;;;;;;5223507;27;20085;-71
2021/05/15 17:41:04;;;;;;;19.05;8.88;;;;;;;;;;5223546;27;20090;-71
2021/05/15 17:43:30;;;;;;;14.98;8.48;;;;;;;;;;5223578;27;20058;-71
2021/05/15 17:45:56;;;;;;;18.27;7.18;;;;;;;;;;5223296;27;20091;-70
2021/05/15 17:48:34;;;;;;;15.15;7.28;;;;;;;;;;5203836;27;20101;-71
2021/05/15 17:51:08;;;;;;;20.12;6.93;;;;;;;;;;5223185;27;20076;-71
2021/05/15 17:53:43;;;;;;;21.67;8.18;;;;;;;;;;5203980;27;20092;-71
2021/05/15 17:56:09;;;;;;;;;;;;;;;;;;5205338;27;20065;-71
2021/05/15 17:58:35;;;;;;;10.52;7.00;;;;;;;;;;5223444;27;19991;-71
2021/05/15 18:01:01;;;;;;;14.30;5.75;;;;;;;;;;5223360;27;20081;-71
2021/05/15 18:03:28;;;;;;;10.10;5.93;;;;;;;;;;5223343;27;20113;-70
2021/05/15 18:05:54;;;;;;;15.63;5.62;;;;;;;;;;5186380;27;20172;-71
2021/05/15 18:08:20;;;;;;;7.75;4.10;;;;;;;;;;5203755;27;20159;-73
2021/05/15 18:10:46;;;;;;;9.15;4.12;;;;;;;;;;5223156;27;20088;-73
2021/05/15 18:13:12;;;;;;;5.97;4.25;;;;;;;;;;5203952;27;20265;-74
2021/05/15 18:15:38;;;;;;;10.18;3.95;;;;;;;;;;5196353;27;20110;-73
2021/05/15 18:18:04;;;;;;;6.78;3.97;;;;;;;;;;5179004;27;20085;-74
2021/05/15 18:20:30;;;;;;;7.97;3.72;;;;;;;;;;5180578;27;20070;-74
2021/05/15 18:22:56;;;;;;;7.80;4.68;;;;;;;;;;5181034;27;20414;-74
2021/05/15 18:25:22;;;;;;;12.68;3.75;;;;;;;;;;5180785;27;20240;-74
2021/05/15 18:27:48;;;;;;;9.43;3.87;;;;;;;;;;5180948;27;20071;-74
2021/05/15 18:30:14;;;;;;;14.18;4.00;;;;;;;;;;5179030;27;20109;-74
2021/05/15 18:32:41;;;;;;;9.32;5.25;;;;;;;;;;5180693;27;20101;-73
2021/05/15 18:35:07;;;;;;;9.65;3.28;;;;;;;;;;5178804;27;20065;-73
2021/05/15 18:37:33;;;;;;;5.18;3.30;;;;;;;;;;5180588;27;20077;-73
2021/05/15 18:40:00;;;;;;;10.80;3.60;;;;;;;;;;5180967;27;20066;-73
2021/05/15 18:42:27;;;;;;;12.15;3.92;;;;;;;;;;5178952;27;20175;-73
2021/05/15 18:44:54;;;;;;;3.67;2.87;;;;;;;;;;5180613;27;20109;-74
2021/05/15 18:47:20;;;;;;;4.62;2.95;;;;;;;;;;5180707;27;20163;-73
2021/05/15 18:49:46;;;;;;;5.90;3.60;;;;;;;;;;5180659;27;20071;-75
2021/05/15 18:52:12;;;;;;;6.70;3.37;;;;;;;;;;5178782;27;20078;-76
2021/05/15 18:54:40;;;;;;;10.93;4.60;;;;;;;;;;5180803;27;20508;-77
2021/05/15 18:57:07;;;;;;;10.10;5.72;;;;;;;;;;5178951;27;20106;-75
2021/05/15 18:59:33;;;;;;;9.85;5.10;;;;;;;;;;5178784;27;20105;-73
2021/05/15 19:01:59;;;;;;;5.97;3.80;;;;;;;;;;5180312;27;20093;-74
2021/05/15 19:04:25;;;;;;;6.57;3.65;;;;;;;;;;5180410;27;20125;-75
2021/05/15 19:06:53;;;;;;;5.10;3.60;;;;;;;;;;5180411;27;20156;-73
2021/05/15 19:09:20;;;;;;;5.35;3.33;;;;;;;;;;5180674;27;20179;-74
2021/05/15 19:11:46;;;;;;;7.45;3.58;;;;;;;;;;5180617;27;20080;-74
2021/05/15 19:14:12;;;;;;;8.93;3.62;;;;;;;;;;5161768;27;20497;-74
2021/05/15 19:16:38;;;;;;;5.97;3.80;;;;;;;;;;5216826;27;20125;-73
2021/05/15 19:19:04;;;;;;;9.05;2.92;;;;;;;;;;5222904;27;20182;-73
2021/05/15 19:21:30;;;;;;;4.50;2.92;;;;;;;;;;5222701;27;20135;-74
2021/05/15 19:23:56;;;;;;;5.62;2.90;;;;;;;;;;5203288;27;20520;-73
2021/05/15 19:26:24;;;;;;;6.93;3.47;;;;;;;;;;5222484;27;20065;-73
2021/05/15 19:28:51;;;;;;;7.03;3.60;;;;;;;;;;5222727;27;20111;-74
2021/05/15 19:31:17;;;;;;;5.50;3.00;;;;;;;;;;5222583;27;20073;-76
2021/05/15 19:33:43;;;;;;;4.32;3.33;;;;;;;;;;5203256;27;20069;-73
2021/05/15 19:36:09;;;;;;;12.95;3.47;;;;;;;;;;5222820;27;20101;-74
2021/05/15 19:38:36;;;;;;;7.62;3.50;;;;;;;;;;5203265;27;20065;-73
2021/05/15 19:41:03;;;;;;;8.52;2.75;;;;;;;;;;5203033;27;20508;-74
2021/05/15 19:43:29;;;;;;;4.40;2.30;;;;;;;;;;5203251;27;20109;-74
2021/05/15 19:45:56;;;;;;;8.75;3.15;;;;;;;;;;5222482;27;20520;-74
2021/05/15 19:48:22;;;;;;;8.02;2.90;;;;;;;;;;5222337;27;20093;-73
2021/05/15 19:50:49;;;;;;;5.47;2.95;;;;;;;;;;5203186;27;20073;-73
2021/05/15 19:53:17;;;;;;;7.37;3.20;;;;;;;;;;5222593;27;20425;-74